Aérodrome :
LOGIN :

S'inscrire | Disclaimer

   EN    FR    IT 

 










Légende :    VFR   VFR Marginal   IFR   IFR Intensif   IFR Très Intensif
Visi : 
Plafond : 
>= 8 km
>= 3000ft
5 à 8 km
1000 à 3000 ft
1500m à 5 km
500 à 1000 ft
800 à 1500m
200 à 500 ft
< 800m
< 200 ft
Symboles :   Orages  Brouillard  Fortes neiges  Fortes précipitations  Vent > 20 kt
SIGMETs :   Divers  Orages  Givrage  Turbulence  Onde Orograph.  Cendres Volcan.







- Altitude de l'aérodrome : 56 ft
- Code IATA : ILY
- Voir les cartes d'approche


EGPI - Islay

DERNIER METAR :
  • 142220Z AUTO 35022KT 9999 NCD 06/02 Q0988

METARs EXPIRÉS :
  • 142150Z AUTO 34022KT 310V010 9999 FEW026/// 07/04 Q0987
  • 142120Z AUTO 34024G35KT 9999 FEW027/// SCT034/// 07/04 Q0986 RERA
  • 142050Z AUTO 33023G34KT 9999 FEW020/// BKN038/// 07/05 Q0985 RERA
  • 142020Z AUTO 32023KT 4400 +RA FEW011/// SCT041/// 07/05 Q0985
  • 141950Z AUTO 31021G32KT 9999 -RA FEW033/// BKN045/// 06/04 Q0985
  • 141920Z AUTO 32023KT 9999 -RA FEW028/// SCT039/// 06/04 Q0984

Prévision TAF périmée.
Pas de NOTAMs connus pour ce terrain.
2 SIGMETs publiés pour la FIR Scottish (EGPX) :
 
Turbulence forte
EGPX SIGMET 02 VALID 142300/150300 EGRR
EGPX SCOTTISH FIR SEV TURB FCST WI N5525 W00729 - N5520 W00810 - N5445 W00900 - N5430 W01000 - N5830 W00530 - N5520 W00655 - N5525 W00729 SFC/FL060 MOV SE 10KT WKN=
Turbulence forte
EGPX SIGMET 01 VALID 141900/142300 EGRR
EGPX SCOTTISH FIR SEV TURB FCST W OF LINE N6100 W00640 - N5411 W00656 SFC/FL060 STNR NC=



MET'MAP, la Météo Aéronautique d'un coup d'oeil ! - Copyright ORBIFLY Décembre 2007 - Disclaimer

ORBIFLY MET'MAP TEAM :

Programmation & Développement : Alexandra Zaïnal
Conception & Développement : Baudouin d'Aumeries
Co-Programmation & Développement : Marc-Olivier Méhu
Soutien technique & logistique : Manuel Goepfert

Contact : metmap@orbifly.com




SOURCES & CREDITS :

   NOAA